sensor_id;sensor_type;location;lat;lon;timestamp;temperature;humidity
63017;DHT22;50274;45.640;11.756;2022-07-23T00:00:14;29.10;47.50
63017;DHT22;50274;45.640;11.756;2022-07-23T00:02:40;29.10;47.70
63017;DHT22;50274;45.640;11.756;2022-07-23T00:05:06;29.10;47.70
63017;DHT22;50274;45.640;11.756;2022-07-23T00:07:35;29.00;48.00
63017;DHT22;50274;45.640;11.756;2022-07-23T00:10:01;28.90;48.20
63017;DHT22;50274;45.640;11.756;2022-07-23T00:12:32;28.90;48.50
63017;DHT22;50274;45.640;11.756;2022-07-23T00:15:00;28.90;48.80
63017;DHT22;50274;45.640;11.756;2022-07-23T00:17:30;28.80;48.80
63017;DHT22;50274;45.640;11.756;2022-07-23T00:19:56;28.90;48.90
63017;DHT22;50274;45.640;11.756;2022-07-23T00:22:24;28.90;48.90
63017;DHT22;50274;45.640;11.756;2022-07-23T00:24:53;28.90;48.80
63017;DHT22;50274;45.640;11.756;2022-07-23T00:27:21;28.90;48.80
63017;DHT22;50274;45.640;11.756;2022-07-23T00:29:47;28.90;48.70
63017;DHT22;50274;45.640;11.756;2022-07-23T00:32:18;28.90;48.70
63017;DHT22;50274;45.640;11.756;2022-07-23T00:34:46;28.90;48.70
63017;DHT22;50274;45.640;11.756;2022-07-23T00:37:11;28.90;48.60
63017;DHT22;50274;45.640;11.756;2022-07-23T00:39:40;28.90;48.50
63017;DHT22;50274;45.640;11.756;2022-07-23T00:42:08;28.80;48.50
63017;DHT22;50274;45.640;11.756;2022-07-23T00:44:36;28.80;48.60
63017;DHT22;50274;45.640;11.756;2022-07-23T00:47:04;28.70;48.70
63017;DHT22;50274;45.640;11.756;2022-07-23T00:49:31;28.70;48.80
63017;DHT22;50274;45.640;11.756;2022-07-23T00:52:01;28.60;49.00
63017;DHT22;50274;45.640;11.756;2022-07-23T00:54:27;28.60;49.30
63017;DHT22;50274;45.640;11.756;2022-07-23T00:56:54;28.60;49.30
63017;DHT22;50274;45.640;11.756;2022-07-23T00:59:22;28.60;49.40
63017;DHT22;50274;45.640;11.756;2022-07-23T01:01:48;28.60;49.40
63017;DHT22;50274;45.640;11.756;2022-07-23T01:04:16;28.50;49.40
63017;DHT22;50274;45.640;11.756;2022-07-23T01:06:43;28.40;49.40
63017;DHT22;50274;45.640;11.756;2022-07-23T01:09:09;28.40;49.40
63017;DHT22;50274;45.640;11.756;2022-07-23T01:11:36;28.40;49.40
63017;DHT22;50274;45.640;11.756;2022-07-23T01:14:15;28.30;49.50
63017;DHT22;50274;45.640;11.756;2022-07-23T01:16:45;28.30;49.60
63017;DHT22;50274;45.640;11.756;2022-07-23T01:19:11;28.30;49.50
63017;DHT22;50274;45.640;11.756;2022-07-23T01:21:42;28.30;49.50
63017;DHT22;50274;45.640;11.756;2022-07-23T01:24:10;28.30;49.50
63017;DHT22;50274;45.640;11.756;2022-07-23T01:26:37;28.30;49.40
63017;DHT22;50274;45.640;11.756;2022-07-23T01:29:04;28.30;49.30
63017;DHT22;50274;45.640;11.756;2022-07-23T01:31:30;28.30;49.20
63017;DHT22;50274;45.640;11.756;2022-07-23T01:33:56;28.30;49.10
63017;DHT22;50274;45.640;11.756;2022-07-23T01:36:22;28.20;49.00
63017;DHT22;50274;45.640;11.756;2022-07-23T01:38:50;28.30;48.90
63017;DHT22;50274;45.640;11.756;2022-07-23T01:41:16;28.30;48.90
63017;DHT22;50274;45.640;11.756;2022-07-23T01:43:42;28.30;48.70
63017;DHT22;50274;45.640;11.756;2022-07-23T01:46:11;28.30;48.40
63017;DHT22;50274;45.640;11.756;2022-07-23T01:48:37;28.30;48.30
63017;DHT22;50274;45.640;11.756;2022-07-23T01:51:05;28.30;48.10
63017;DHT22;50274;45.640;11.756;2022-07-23T01:53:31;28.20;47.90
63017;DHT22;50274;45.640;11.756;2022-07-23T01:55:59;28.20;47.70
63017;DHT22;50274;45.640;11.756;2022-07-23T01:58:26;28.20;47.50
63017;DHT22;50274;45.640;11.756;2022-07-23T02:00:53;28.10;47.40
63017;DHT22;50274;45.640;11.756;2022-07-23T02:03:20;28.10;47.40
63017;DHT22;50274;45.640;11.756;2022-07-23T02:05:46;28.10;47.40
63017;DHT22;50274;45.640;11.756;2022-07-23T02:08:14;28.10;47.40
63017;DHT22;50274;45.640;11.756;2022-07-23T02:10:40;28.10;47.30
63017;DHT22;50274;45.640;11.756;2022-07-23T02:13:06;28.10;47.30
63017;DHT22;50274;45.640;11.756;2022-07-23T02:15:32;28.10;47.40
63017;DHT22;50274;45.640;11.756;2022-07-23T02:17:58;28.10;47.40
63017;DHT22;50274;45.640;11.756;2022-07-23T02:20:24;28.10;47.40
63017;DHT22;50274;45.640;11.756;2022-07-23T02:22:51;28.10;47.40
63017;DHT22;50274;45.640;11.756;2022-07-23T02:25:17;28.00;47.50
63017;DHT22;50274;45.640;11.756;2022-07-23T02:27:43;28.00;47.50
63017;DHT22;50274;45.640;11.756;2022-07-23T02:30:12;27.90;47.70
63017;DHT22;50274;45.640;11.756;2022-07-23T02:32:38;27.90;47.80
63017;DHT22;50274;45.640;11.756;2022-07-23T02:35:06;27.90;47.90
63017;DHT22;50274;45.640;11.756;2022-07-23T02:37:34;27.80;48.10
63017;DHT22;50274;45.640;11.756;2022-07-23T02:40:02;27.70;48.20
63017;DHT22;50274;45.640;11.756;2022-07-23T02:42:28;27.70;48.40
63017;DHT22;50274;45.640;11.756;2022-07-23T02:44:54;27.70;48.50
63017;DHT22;50274;45.640;11.756;2022-07-23T02:47:22;27.60;48.60
63017;DHT22;50274;45.640;11.756;2022-07-23T02:49:50;27.60;48.70
63017;DHT22;50274;45.640;11.756;2022-07-23T02:52:19;27.60;48.80
63017;DHT22;50274;45.640;11.756;2022-07-23T02:54:44;27.60;48.80
63017;DHT22;50274;45.640;11.756;2022-07-23T02:57:13;27.60;48.90
63017;DHT22;50274;45.640;11.756;2022-07-23T02:59:41;27.50;49.10
63017;DHT22;50274;45.640;11.756;2022-07-23T03:02:07;27.60;49.20
63017;DHT22;50274;45.640;11.756;2022-07-23T03:04:38;27.60;49.20
63017;DHT22;50274;45.640;11.756;2022-07-23T03:07:04;27.50;49.30
63017;DHT22;50274;45.640;11.756;2022-07-23T03:09:29;27.50;49.40
63017;DHT22;50274;45.640;11.756;2022-07-23T03:11:55;27.40;49.50
63017;DHT22;50274;45.640;11.756;2022-07-23T03:14:21;27.50;49.60
63017;DHT22;50274;45.640;11.756;2022-07-23T03:16:47;27.40;49.80
63017;DHT22;50274;45.640;11.756;2022-07-23T03:19:15;27.40;49.80
63017;DHT22;50274;45.640;11.756;2022-07-23T03:21:40;27.40;50.00
63017;DHT22;50274;45.640;11.756;2022-07-23T03:24:10;27.30;50.00
63017;DHT22;50274;45.640;11.756;2022-07-23T03:26:36;27.30;50.30
63017;DHT22;50274;45.640;11.756;2022-07-23T03:29:03;27.30;50.30
63017;DHT22;50274;45.640;11.756;2022-07-23T03:31:30;27.30;50.60
63017;DHT22;50274;45.640;11.756;2022-07-23T03:33:59;27.30;50.70
63017;DHT22;50274;45.640;11.756;2022-07-23T03:36:25;27.20;50.80
63017;DHT22;50274;45.640;11.756;2022-07-23T03:38:51;27.20;50.80
63017;DHT22;50274;45.640;11.756;2022-07-23T03:41:17;27.20;50.90
63017;DHT22;50274;45.640;11.756;2022-07-23T03:43:43;27.20;50.90
63017;DHT22;50274;45.640;11.756;2022-07-23T03:46:09;27.10;51.00
63017;DHT22;50274;45.640;11.756;2022-07-23T03:48:35;27.10;51.10
63017;DHT22;50274;45.640;11.756;2022-07-23T03:51:01;27.10;51.10
63017;DHT22;50274;45.640;11.756;2022-07-23T03:53:28;27.10;51.30
63017;DHT22;50274;45.640;11.756;2022-07-23T03:55:53;27.00;51.40
63017;DHT22;50274;45.640;11.756;2022-07-23T03:58:19;27.00;51.50
63017;DHT22;50274;45.640;11.756;2022-07-23T04:00:45;27.00;51.70
63017;DHT22;50274;45.640;11.756;2022-07-23T04:03:11;27.00;51.80
63017;DHT22;50274;45.640;11.756;2022-07-23T04:05:37;27.00;51.90
63017;DHT22;50274;45.640;11.756;2022-07-23T04:08:03;27.00;52.00
63017;DHT22;50274;45.640;11.756;2022-07-23T04:10:29;27.00;52.10
63017;DHT22;50274;45.640;11.756;2022-07-23T04:12:55;27.00;52.10
63017;DHT22;50274;45.640;11.756;2022-07-23T04:15:21;26.90;52.20
63017;DHT22;50274;45.640;11.756;2022-07-23T04:17:47;26.90;52.20
63017;DHT22;50274;45.640;11.756;2022-07-23T04:20:12;26.90;52.30
63017;DHT22;50274;45.640;11.756;2022-07-23T04:22:38;26.90;52.30
63017;DHT22;50274;45.640;11.756;2022-07-23T04:25:05;26.90;52.40
63017;DHT22;50274;45.640;11.756;2022-07-23T04:27:30;26.90;52.40
63017;DHT22;50274;45.640;11.756;2022-07-23T04:29:59;26.90;52.60
63017;DHT22;50274;45.640;11.756;2022-07-23T04:32:24;26.90;52.80
63017;DHT22;50274;45.640;11.756;2022-07-23T04:34:50;26.90;52.90
63017;DHT22;50274;45.640;11.756;2022-07-23T04:37:16;26.80;53.00
63017;DHT22;50274;45.640;11.756;2022-07-23T04:39:42;26.90;53.10
63017;DHT22;50274;45.640;11.756;2022-07-23T04:42:07;26.90;53.00
63017;DHT22;50274;45.640;11.756;2022-07-23T04:44:33;26.90;53.00
63017;DHT22;50274;45.640;11.756;2022-07-23T04:46:59;26.90;53.00
63017;DHT22;50274;45.640;11.756;2022-07-23T04:49:25;27.00;53.00
63017;DHT22;50274;45.640;11.756;2022-07-23T04:51:51;26.90;53.10
63017;DHT22;50274;45.640;11.756;2022-07-23T04:54:17;27.00;53.10
63017;DHT22;50274;45.640;11.756;2022-07-23T04:56:44;27.00;53.20
63017;DHT22;50274;45.640;11.756;2022-07-23T04:59:09;27.00;53.20
63017;DHT22;50274;45.640;11.756;2022-07-23T05:01:35;27.10;53.30
63017;DHT22;50274;45.640;11.756;2022-07-23T05:04:01;27.10;53.30
63017;DHT22;50274;45.640;11.756;2022-07-23T05:06:27;27.10;53.30
63017;DHT22;50274;45.640;11.756;2022-07-23T05:08:53;27.10;53.30
63017;DHT22;50274;45.640;11.756;2022-07-23T05:11:20;27.10;53.20
63017;DHT22;50274;45.640;11.756;2022-07-23T05:13:46;27.20;53.40
63017;DHT22;50274;45.640;11.756;2022-07-23T05:16:12;27.20;53.50
63017;DHT22;50274;45.640;11.756;2022-07-23T05:18:38;27.20;53.60
63017;DHT22;50274;45.640;11.756;2022-07-23T05:21:03;27.20;53.50
63017;DHT22;50274;45.640;11.756;2022-07-23T05:23:29;27.20;53.40
63017;DHT22;50274;45.640;11.756;2022-07-23T05:25:55;27.20;53.40
63017;DHT22;50274;45.640;11.756;2022-07-23T05:28:21;27.30;53.40
63017;DHT22;50274;45.640;11.756;2022-07-23T05:30:46;27.30;53.50
63017;DHT22;50274;45.640;11.756;2022-07-23T05:33:12;27.30;53.50
63017;DHT22;50274;45.640;11.756;2022-07-23T05:35:38;27.30;53.50
63017;DHT22;50274;45.640;11.756;2022-07-23T05:38:04;27.40;53.40
63017;DHT22;50274;45.640;11.756;2022-07-23T05:40:30;27.40;53.30
63017;DHT22;50274;45.640;11.756;2022-07-23T05:42:55;27.40;53.30
63017;DHT22;50274;45.640;11.756;2022-07-23T05:45:21;27.50;53.30
63017;DHT22;50274;45.640;11.756;2022-07-23T05:47:48;27.50;53.30
63017;DHT22;50274;45.640;11.756;2022-07-23T05:50:15;27.50;53.40
63017;DHT22;50274;45.640;11.756;2022-07-23T05:52:41;27.60;53.30
63017;DHT22;50274;45.640;11.756;2022-07-23T05:55:09;27.60;53.20
63017;DHT22;50274;45.640;11.756;2022-07-23T05:57:35;27.70;53.10
63017;DHT22;50274;45.640;11.756;2022-07-23T06:00:03;27.80;53.00
63017;DHT22;50274;45.640;11.756;2022-07-23T06:02:29;27.90;52.70
63017;DHT22;50274;45.640;11.756;2022-07-23T06:04:54;28.00;52.40
63017;DHT22;50274;45.640;11.756;2022-07-23T06:07:20;28.10;52.10
63017;DHT22;50274;45.640;11.756;2022-07-23T06:09:46;28.20;51.80
63017;DHT22;50274;45.640;11.756;2022-07-23T06:12:15;28.30;51.60
63017;DHT22;50274;45.640;11.756;2022-07-23T06:14:40;28.40;51.50
63017;DHT22;50274;45.640;11.756;2022-07-23T06:17:07;28.50;51.40
63017;DHT22;50274;45.640;11.756;2022-07-23T06:19:33;28.60;51.20
63017;DHT22;50274;45.640;11.756;2022-07-23T06:21:59;28.70;50.80
63017;DHT22;50274;45.640;11.756;2022-07-23T06:24:24;28.90;50.40
63017;DHT22;50274;45.640;11.756;2022-07-23T06:26:50;29.00;50.00
63017;DHT22;50274;45.640;11.756;2022-07-23T06:29:16;29.10;49.80
63017;DHT22;50274;45.640;11.756;2022-07-23T06:31:42;29.20;49.70
63017;DHT22;50274;45.640;11.756;2022-07-23T06:34:07;29.20;49.50
63017;DHT22;50274;45.640;11.756;2022-07-23T06:36:33;29.30;49.40
63017;DHT22;50274;45.640;11.756;2022-07-23T06:38:59;29.40;49.20
63017;DHT22;50274;45.640;11.756;2022-07-23T06:41:25;29.50;49.10
63017;DHT22;50274;45.640;11.756;2022-07-23T06:43:50;29.60;48.90
63017;DHT22;50274;45.640;11.756;2022-07-23T06:46:16;29.70;48.70
63017;DHT22;50274;45.640;11.756;2022-07-23T06:48:42;29.80;48.50
63017;DHT22;50274;45.640;11.756;2022-07-23T06:51:08;29.80;48.20
63017;DHT22;50274;45.640;11.756;2022-07-23T06:53:33;29.90;47.60
63017;DHT22;50274;45.640;11.756;2022-07-23T06:55:59;30.00;46.60
63017;DHT22;50274;45.640;11.756;2022-07-23T06:58:25;30.10;45.50
63017;DHT22;50274;45.640;11.756;2022-07-23T07:00:51;30.10;45.40
63017;DHT22;50274;45.640;11.756;2022-07-23T07:03:17;30.10;45.20
63017;DHT22;50274;45.640;11.756;2022-07-23T07:05:44;30.20;44.90
63017;DHT22;50274;45.640;11.756;2022-07-23T07:08:09;30.20;44.50
63017;DHT22;50274;45.640;11.756;2022-07-23T07:10:35;30.30;44.40
63017;DHT22;50274;45.640;11.756;2022-07-23T07:13:01;30.40;44.70
63017;DHT22;50274;45.640;11.756;2022-07-23T07:15:28;30.40;44.70
63017;DHT22;50274;45.640;11.756;2022-07-23T07:17:53;30.50;44.60
63017;DHT22;50274;45.640;11.756;2022-07-23T07:20:19;30.60;44.60
63017;DHT22;50274;45.640;11.756;2022-07-23T07:22:45;30.70;43.80
63017;DHT22;50274;45.640;11.756;2022-07-23T07:25:11;30.80;43.50
63017;DHT22;50274;45.640;11.756;2022-07-23T07:27:37;30.90;43.20
63017;DHT22;50274;45.640;11.756;2022-07-23T07:30:04;30.90;43.00
63017;DHT22;50274;45.640;11.756;2022-07-23T07:32:31;31.00;43.40
63017;DHT22;50274;45.640;11.756;2022-07-23T07:34:58;31.00;43.60
63017;DHT22;50274;45.640;11.756;2022-07-23T07:37:24;31.10;43.80
63017;DHT22;50274;45.640;11.756;2022-07-23T07:39:50;31.20;43.90
63017;DHT22;50274;45.640;11.756;2022-07-23T07:42:15;31.30;43.50
63017;DHT22;50274;45.640;11.756;2022-07-23T07:44:41;31.40;43.00
63017;DHT22;50274;45.640;11.756;2022-07-23T07:47:07;31.40;42.50
63017;DHT22;50274;45.640;11.756;2022-07-23T07:49:36;31.60;42.20
63017;DHT22;50274;45.640;11.756;2022-07-23T07:52:02;31.60;42.60
63017;DHT22;50274;45.640;11.756;2022-07-23T07:54:28;31.70;42.70
63017;DHT22;50274;45.640;11.756;2022-07-23T07:56:54;31.80;42.40
63017;DHT22;50274;45.640;11.756;2022-07-23T07:59:22;31.90;42.40
63017;DHT22;50274;45.640;11.756;2022-07-23T08:01:48;32.00;42.40
63017;DHT22;50274;45.640;11.756;2022-07-23T08:04:14;32.10;42.30
63017;DHT22;50274;45.640;11.756;2022-07-23T08:06:40;32.10;42.20
63017;DHT22;50274;45.640;11.756;2022-07-23T08:09:05;32.20;42.20
63017;DHT22;50274;45.640;11.756;2022-07-23T08:11:31;32.30;42.50
63017;DHT22;50274;45.640;11.756;2022-07-23T08:13:57;32.40;42.50
63017;DHT22;50274;45.640;11.756;2022-07-23T08:16:23;32.40;42.30
63017;DHT22;50274;45.640;11.756;2022-07-23T08:18:48;32.50;42.30
63017;DHT22;50274;45.640;11.756;2022-07-23T08:21:14;32.60;42.20
63017;DHT22;50274;45.640;11.756;2022-07-23T08:23:40;32.70;42.10
63017;DHT22;50274;45.640;11.756;2022-07-23T08:26:06;32.70;41.90
63017;DHT22;50274;45.640;11.756;2022-07-23T08:28:32;32.90;41.80
63017;DHT22;50274;45.640;11.756;2022-07-23T08:30:59;32.90;41.60
63017;DHT22;50274;45.640;11.756;2022-07-23T08:33:26;33.00;41.50
63017;DHT22;50274;45.640;11.756;2022-07-23T08:35:52;33.10;41.30
63017;DHT22;50274;45.640;11.756;2022-07-23T08:38:20;33.10;41.10
63017;DHT22;50274;45.640;11.756;2022-07-23T08:40:54;33.20;40.90
63017;DHT22;50274;45.640;11.756;2022-07-23T08:43:22;33.20;40.90
63017;DHT22;50274;45.640;11.756;2022-07-23T08:45:50;33.30;40.70
63017;DHT22;50274;45.640;11.756;2022-07-23T08:48:19;33.40;40.40
63017;DHT22;50274;45.640;11.756;2022-07-23T08:50:48;33.40;40.40
63017;DHT22;50274;45.640;11.756;2022-07-23T08:53:15;33.50;40.30
63017;DHT22;50274;45.640;11.756;2022-07-23T08:55:55;33.50;40.30
63017;DHT22;50274;45.640;11.756;2022-07-23T08:58:22;33.60;40.20
63017;DHT22;50274;45.640;11.756;2022-07-23T09:00:48;33.60;40.10
63017;DHT22;50274;45.640;11.756;2022-07-23T09:03:20;33.60;39.80
63017;DHT22;50274;45.640;11.756;2022-07-23T09:05:46;33.70;40.00
63017;DHT22;50274;45.640;11.756;2022-07-23T09:08:19;33.80;39.90
63017;DHT22;50274;45.640;11.756;2022-07-23T09:10:52;33.90;39.80
63017;DHT22;50274;45.640;11.756;2022-07-23T09:15:53;34.20;39.60
63017;DHT22;50274;45.640;11.756;2022-07-23T09:18:27;34.40;39.30
63017;DHT22;50274;45.640;11.756;2022-07-23T09:21:15;34.50;39.10
63017;DHT22;50274;45.640;11.756;2022-07-23T09:23:51;34.60;38.80
63017;DHT22;50274;45.640;11.756;2022-07-23T09:26:30;34.80;38.40
63017;DHT22;50274;45.640;11.756;2022-07-23T09:31:53;34.90;38.20
63017;DHT22;50274;45.640;11.756;2022-07-23T09:37:09;34.80;38.40
63017;DHT22;50274;45.640;11.756;2022-07-23T09:39:35;34.70;38.50
63017;DHT22;50274;45.640;11.756;2022-07-23T09:42:24;34.70;38.50
63017;DHT22;50274;45.640;11.756;2022-07-23T09:44:51;34.70;38.50
63017;DHT22;50274;45.640;11.756;2022-07-23T09:47:18;34.70;38.30
63017;DHT22;50274;45.640;11.756;2022-07-23T09:50:05;34.60;38.30
63017;DHT22;50274;45.640;11.756;2022-07-23T09:52:43;34.70;38.20
63017;DHT22;50274;45.640;11.756;2022-07-23T09:55:10;34.90;38.00
63017;DHT22;50274;45.640;11.756;2022-07-23T09:57:36;35.10;37.60
63017;DHT22;50274;45.640;11.756;2022-07-23T10:00:08;35.10;37.50
63017;DHT22;50274;45.640;11.756;2022-07-23T10:02:38;35.30;37.30
63017;DHT22;50274;45.640;11.756;2022-07-23T10:05:05;35.40;37.00
63017;DHT22;50274;45.640;11.756;2022-07-23T10:07:34;35.50;36.40
63017;DHT22;50274;45.640;11.756;2022-07-23T10:10:04;35.60;36.40
63017;DHT22;50274;45.640;11.756;2022-07-23T10:12:31;35.70;35.50
63017;DHT22;50274;45.640;11.756;2022-07-23T10:15:00;35.80;34.90
63017;DHT22;50274;45.640;11.756;2022-07-23T10:17:28;35.90;35.30
63017;DHT22;50274;45.640;11.756;2022-07-23T10:19:54;36.10;35.00
63017;DHT22;50274;45.640;11.756;2022-07-23T10:22:23;36.10;34.10
63017;DHT22;50274;45.640;11.756;2022-07-23T10:25:03;36.20;33.70
63017;DHT22;50274;45.640;11.756;2022-07-23T10:30:18;36.40;33.10
63017;DHT22;50274;45.640;11.756;2022-07-23T10:38:34;36.70;32.10
63017;DHT22;50274;45.640;11.756;2022-07-23T10:41:08;36.70;31.90
63017;DHT22;50274;45.640;11.756;2022-07-23T10:43:43;36.80;32.40
63017;DHT22;50274;45.640;11.756;2022-07-23T10:46:25;36.90;32.20
63017;DHT22;50274;45.640;11.756;2022-07-23T10:49:24;37.00;32.30
63017;DHT22;50274;45.640;11.756;2022-07-23T10:52:25;37.20;32.30
63017;DHT22;50274;45.640;11.756;2022-07-23T10:54:55;37.20;32.50
63017;DHT22;50274;45.640;11.756;2022-07-23T10:57:26;37.30;32.60
63017;DHT22;50274;45.640;11.756;2022-07-23T11:02:41;37.20;31.00
63017;DHT22;50274;45.640;11.756;2022-07-23T11:05:12;37.20;30.30
63017;DHT22;50274;45.640;11.756;2022-07-23T11:10:43;37.30;30.70
63017;DHT22;50274;45.640;11.756;2022-07-23T11:32:18;38.20;27.70
63017;DHT22;50274;45.640;11.756;2022-07-23T11:34:49;38.40;26.50
63017;DHT22;50274;45.640;11.756;2022-07-23T11:37:35;38.30;24.90
63017;DHT22;50274;45.640;11.756;2022-07-23T11:40:08;38.40;24.70
63017;DHT22;50274;45.640;11.756;2022-07-23T11:42:36;38.50;24.60
63017;DHT22;50274;45.640;11.756;2022-07-23T11:45:03;38.50;24.20
63017;DHT22;50274;45.640;11.756;2022-07-23T11:47:29;38.70;24.80
63017;DHT22;50274;45.640;11.756;2022-07-23T11:50:01;38.90;24.60
63017;DHT22;50274;45.640;11.756;2022-07-23T11:52:27;39.00;24.50
63017;DHT22;50274;45.640;11.756;2022-07-23T11:54:58;39.10;24.30
63017;DHT22;50274;45.640;11.756;2022-07-23T11:57:27;39.20;24.50
63017;DHT22;50274;45.640;11.756;2022-07-23T11:59:56;39.20;23.60
63017;DHT22;50274;45.640;11.756;2022-07-23T12:02:23;39.20;24.20
63017;DHT22;50274;45.640;11.756;2022-07-23T12:04:50;39.20;24.70
63017;DHT22;50274;45.640;11.756;2022-07-23T12:07:43;39.30;25.40
63017;DHT22;50274;45.640;11.756;2022-07-23T12:10:39;39.40;26.00
63017;DHT22;50274;45.640;11.756;2022-07-23T12:13:11;39.60;25.80
63017;DHT22;50274;45.640;11.756;2022-07-23T12:15:43;39.60;24.50
63017;DHT22;50274;45.640;11.756;2022-07-23T12:18:12;39.60;23.70
63017;DHT22;50274;45.640;11.756;2022-07-23T12:20:41;39.70;23.80
63017;DHT22;50274;45.640;11.756;2022-07-23T12:23:09;39.80;24.10
63017;DHT22;50274;45.640;11.756;2022-07-23T12:25:38;39.90;24.30
63017;DHT22;50274;45.640;11.756;2022-07-23T12:28:07;40.00;24.50
63017;DHT22;50274;45.640;11.756;2022-07-23T12:30:41;39.90;24.10
63017;DHT22;50274;45.640;11.756;2022-07-23T12:33:09;39.80;24.20
63017;DHT22;50274;45.640;11.756;2022-07-23T12:35:44;39.70;24.50
63017;DHT22;50274;45.640;11.756;2022-07-23T12:38:13;39.70;24.70
63017;DHT22;50274;45.640;11.756;2022-07-23T12:40:50;39.70;24.70
63017;DHT22;50274;45.640;11.756;2022-07-23T12:43:30;39.70;25.20
63017;DHT22;50274;45.640;11.756;2022-07-23T12:46:05;39.70;24.80
63017;DHT22;50274;45.640;11.756;2022-07-23T12:48:39;39.80;24.70
63017;DHT22;50274;45.640;11.756;2022-07-23T12:51:28;39.90;25.30
63017;DHT22;50274;45.640;11.756;2022-07-23T12:54:06;39.90;24.70
63017;DHT22;50274;45.640;11.756;2022-07-23T12:56:40;40.10;24.40
63017;DHT22;50274;45.640;11.756;2022-07-23T12:59:09;40.10;24.70
63017;DHT22;50274;45.640;11.756;2022-07-23T13:01:40;40.20;24.70
63017;DHT22;50274;45.640;11.756;2022-07-23T13:04:19;40.20;24.80
63017;DHT22;50274;45.640;11.756;2022-07-23T13:06:54;40.30;24.40
63017;DHT22;50274;45.640;11.756;2022-07-23T13:09:23;40.30;24.20
63017;DHT22;50274;45.640;11.756;2022-07-23T13:11:50;40.40;23.50
63017;DHT22;50274;45.640;11.756;2022-07-23T13:14:17;40.30;23.20
63017;DHT22;50274;45.640;11.756;2022-07-23T13:16:44;40.20;23.10
63017;DHT22;50274;45.640;11.756;2022-07-23T13:19:13;40.20;23.30
63017;DHT22;50274;45.640;11.756;2022-07-23T13:21:41;40.20;23.70
63017;DHT22;50274;45.640;11.756;2022-07-23T13:24:08;40.30;23.80
63017;DHT22;50274;45.640;11.756;2022-07-23T13:26:35;40.20;23.10
63017;DHT22;50274;45.640;11.756;2022-07-23T13:29:01;40.20;23.10
63017;DHT22;50274;45.640;11.756;2022-07-23T13:31:27;40.20;23.30
63017;DHT22;50274;45.640;11.756;2022-07-23T13:33:53;40.20;24.00
63017;DHT22;50274;45.640;11.756;2022-07-23T13:36:18;40.20;23.80
63017;DHT22;50274;45.640;11.756;2022-07-23T13:38:44;40.20;23.00
63017;DHT22;50274;45.640;11.756;2022-07-23T13:41:11;40.30;23.00
63017;DHT22;50274;45.640;11.756;2022-07-23T13:43:37;40.40;22.40
63017;DHT22;50274;45.640;11.756;2022-07-23T13:46:02;40.40;22.30
63017;DHT22;50274;45.640;11.756;2022-07-23T13:48:28;40.40;22.40
63017;DHT22;50274;45.640;11.756;2022-07-23T13:50:54;40.30;22.70
63017;DHT22;50274;45.640;11.756;2022-07-23T13:53:23;40.30;22.50
63017;DHT22;50274;45.640;11.756;2022-07-23T13:55:51;40.40;22.40
63017;DHT22;50274;45.640;11.756;2022-07-23T13:58:18;40.40;22.60
63017;DHT22;50274;45.640;11.756;2022-07-23T14:00:46;40.30;21.50
63017;DHT22;50274;45.640;11.756;2022-07-23T14:03:13;40.20;21.80
63017;DHT22;50274;45.640;11.756;2022-07-23T14:05:39;40.20;22.20
63017;DHT22;50274;45.640;11.756;2022-07-23T14:08:05;40.20;22.30
63017;DHT22;50274;45.640;11.756;2022-07-23T14:10:31;40.20;22.50
63017;DHT22;50274;45.640;11.756;2022-07-23T14:12:57;40.10;22.70
63017;DHT22;50274;45.640;11.756;2022-07-23T14:15:24;40.10;22.50
63017;DHT22;50274;45.640;11.756;2022-07-23T14:17:52;40.00;21.60
63017;DHT22;50274;45.640;11.756;2022-07-23T14:20:19;40.00;21.70
63017;DHT22;50274;45.640;11.756;2022-07-23T14:22:45;39.90;21.80
63017;DHT22;50274;45.640;11.756;2022-07-23T14:25:11;39.80;22.10
63017;DHT22;50274;45.640;11.756;2022-07-23T14:27:38;39.70;21.80
63017;DHT22;50274;45.640;11.756;2022-07-23T14:30:05;39.60;21.90
63017;DHT22;50274;45.640;11.756;2022-07-23T14:32:31;39.50;22.50
63017;DHT22;50274;45.640;11.756;2022-07-23T14:34:57;39.30;22.60
63017;DHT22;50274;45.640;11.756;2022-07-23T14:37:23;39.20;23.00
63017;DHT22;50274;45.640;11.756;2022-07-23T14:39:50;39.20;23.50
63017;DHT22;50274;45.640;11.756;2022-07-23T14:42:17;39.30;23.50
63017;DHT22;50274;45.640;11.756;2022-07-23T14:44:43;39.40;23.40
63017;DHT22;50274;45.640;11.756;2022-07-23T14:47:09;39.40;23.60
63017;DHT22;50274;45.640;11.756;2022-07-23T14:49:35;39.40;23.60
63017;DHT22;50274;45.640;11.756;2022-07-23T14:52:03;39.40;23.60
63017;DHT22;50274;45.640;11.756;2022-07-23T14:54:29;39.40;23.80
63017;DHT22;50274;45.640;11.756;2022-07-23T14:56:56;39.40;23.80
63017;DHT22;50274;45.640;11.756;2022-07-23T14:59:23;39.30;23.70
63017;DHT22;50274;45.640;11.756;2022-07-23T15:01:49;39.10;23.60
63017;DHT22;50274;45.640;11.756;2022-07-23T15:04:15;38.90;23.70
63017;DHT22;50274;45.640;11.756;2022-07-23T15:06:41;38.70;23.90
63017;DHT22;50274;45.640;11.756;2022-07-23T15:09:07;38.40;24.40
63017;DHT22;50274;45.640;11.756;2022-07-23T15:11:33;38.20;24.90
63017;DHT22;50274;45.640;11.756;2022-07-23T15:14:00;38.10;25.20
63017;DHT22;50274;45.640;11.756;2022-07-23T15:16:27;38.10;25.60
63017;DHT22;50274;45.640;11.756;2022-07-23T15:18:53;38.00;26.40
63017;DHT22;50274;45.640;11.756;2022-07-23T15:21:19;37.90;27.60
63017;DHT22;50274;45.640;11.756;2022-07-23T15:23:45;37.70;28.10
63017;DHT22;50274;45.640;11.756;2022-07-23T15:26:10;37.70;28.40
63017;DHT22;50274;45.640;11.756;2022-07-23T15:28:36;37.70;29.30
63017;DHT22;50274;45.640;11.756;2022-07-23T15:31:02;37.70;30.00
63017;DHT22;50274;45.640;11.756;2022-07-23T15:33:28;37.60;29.70
63017;DHT22;50274;45.640;11.756;2022-07-23T15:35:54;37.50;29.50
63017;DHT22;50274;45.640;11.756;2022-07-23T15:38:22;37.50;29.70
63017;DHT22;50274;45.640;11.756;2022-07-23T15:40:48;37.50;30.00
63017;DHT22;50274;45.640;11.756;2022-07-23T15:43:14;37.40;30.00
63017;DHT22;50274;45.640;11.756;2022-07-23T15:45:40;37.20;30.10
63017;DHT22;50274;45.640;11.756;2022-07-23T15:48:06;37.20;30.40
63017;DHT22;50274;45.640;11.756;2022-07-23T15:50:33;37.10;30.60
63017;DHT22;50274;45.640;11.756;2022-07-23T15:52:58;37.00;30.40
63017;DHT22;50274;45.640;11.756;2022-07-23T15:55:24;37.10;30.70
63017;DHT22;50274;45.640;11.756;2022-07-23T15:57:51;37.00;30.60
63017;DHT22;50274;45.640;11.756;2022-07-23T16:00:17;36.90;30.70